Time;durP1;ratioP1;P1;durP2;ratioP2;P2;SDS_P1;SDS_P2;PMS_P1;PMS_P2;Temp;Humidity;BMP_temperature;BMP_pressure;BME280_temperature;BME280_humidity;BME280_pressure;Samples;Min_cycle;Max_cycle;Signal;HPM_P1;HPM_P2
2023/07/03 00:01:52;;;;;;;8.58;6.40;;;24.90;99.90;;;;;;1839104;76;21088;-81
2023/07/03 00:04:26;;;;;;;9.18;6.97;;;24.90;99.90;;;;;;1851064;77;21544;-81
2023/07/03 00:07:16;;;;;;;9.80;7.25;;;24.90;99.90;;;;;;1826947;76;21095;-82
2023/07/03 00:09:52;;;;;;;8.55;7.67;;;25.00;99.90;;;;;;1851143;76;21194;-83
2023/07/03 00:12:28;;;;;;;9.50;7.35;;;25.00;99.90;;;;;;1827983;75;21139;-84
2023/07/03 00:15:02;;;;;;;8.55;7.30;;;25.00;99.90;;;;;;1869488;76;21127;-81
2023/07/03 00:17:39;;;;;;;10.68;7.40;;;25.10;99.90;;;;;;1871090;76;21550;-83
2023/07/03 00:20:13;;;;;;;9.33;7.45;;;25.10;99.90;;;;;;1833699;78;21054;-83
2023/07/03 00:22:52;;;;;;;9.73;7.55;;;25.20;99.90;;;;;;1835406;76;21123;-83
2023/07/03 00:25:25;;;;;;;12.25;7.35;;;25.20;99.90;;;;;;1840856;74;21078;-82
2023/07/03 00:28:02;;;;;;;8.48;6.72;;;25.30;99.90;;;;;;1868451;75;21093;-83
2023/07/03 00:30:36;;;;;;;8.58;6.62;;;25.30;99.90;;;;;;1811180;77;21167;-84
2023/07/03 00:33:19;;;;;;;8.88;6.65;;;25.30;99.90;;;;;;1837189;76;21198;-82
2023/07/03 00:35:57;;;;;;;7.10;5.95;;;25.40;99.90;;;;;;1790769;78;21130;-83
2023/07/03 00:38:29;;;;;;;8.98;5.58;;;25.40;99.90;;;;;;1808187;77;21202;-80
2023/07/03 00:41:02;;;;;;;10.23;5.62;;;25.40;99.90;;;;;;1799446;77;21216;-84
2023/07/03 00:43:40;;;;;;;9.30;6.58;;;25.40;99.90;;;;;;1817705;78;21121;-81
2023/07/03 00:46:17;;;;;;;7.92;5.78;;;25.50;99.90;;;;;;1819009;77;21103;-83
2023/07/03 00:48:52;;;;;;;11.08;6.90;;;25.50;99.90;;;;;;1828259;77;21145;-83
2023/07/03 00:51:29;;;;;;;6.75;6.03;;;25.50;99.90;;;;;;1829108;76;21521;-83
2023/07/03 00:54:04;;;;;;;7.33;6.25;;;25.50;99.90;;;;;;1809788;77;21092;-85
2023/07/03 00:56:41;;;;;;;6.92;5.67;;;25.60;99.90;;;;;;1891236;75;21151;-84
2023/07/03 00:59:14;;;;;;;8.70;5.65;;;25.60;99.90;;;;;;1814754;78;21232;-85
2023/07/03 01:02:10;;;;;;;7.33;5.15;;;25.70;99.90;;;;;;1813977;77;21144;-83
2023/07/03 01:04:54;;;;;;;9.95;5.50;;;25.70;99.90;;;;;;1786387;79;21173;-82
2023/07/03 01:07:37;;;;;;;6.78;5.28;;;25.70;99.90;;;;;;1871853;76;21552;-82
2023/07/03 01:10:25;;;;;;;12.45;5.58;;;25.80;99.90;;;;;;1877417;74;21134;-83
2023/07/03 01:13:06;;;;;;;8.58;5.55;;;25.80;99.90;;;;;;1816687;78;21160;-83
2023/07/03 01:15:44;;;;;;;10.32;5.92;;;25.80;99.90;;;;;;1860373;76;21076;-81
2023/07/03 01:18:21;;;;;;;15.53;6.78;;;25.90;99.90;;;;;;1828409;76;21063;-81
2023/07/03 01:21:03;;;;;;;15.95;6.78;;;25.90;99.90;;;;;;1828012;77;21083;-82
2023/07/03 01:23:50;;;;;;;13.78;6.45;;;25.90;99.90;;;;;;1849828;76;21060;-83
2023/07/03 01:26:26;;;;;;;12.55;5.85;;;26.00;99.90;;;;;;1877621;76;21083;-82
2023/07/03 01:29:01;;;;;;;14.98;6.53;;;26.00;99.90;;;;;;1833818;76;21235;-84
2023/07/03 01:31:38;;;;;;;16.63;6.27;;;26.10;99.90;;;;;;1891233;74;21117;-83
2023/07/03 01:34:13;;;;;;;17.23;6.22;;;26.10;99.90;;;;;;1891154;74;21172;-84
2023/07/03 01:36:48;;;;;;;9.55;4.62;;;26.10;99.90;;;;;;1888787;75;21104;-84
2023/07/03 01:39:38;;;;;;;10.43;4.53;;;26.10;99.90;;;;;;1885844;74;21280;-83
2023/07/03 01:42:23;;;;;;;21.30;6.08;;;26.20;99.90;;;;;;1890376;75;21089;-83
2023/07/03 01:44:58;;;;;;;12.58;5.50;;;26.20;99.90;;;;;;1886690;75;21208;-83
2023/07/03 01:47:32;;;;;;;11.65;4.50;;;26.20;99.90;;;;;;1823012;78;21118;-69
2023/07/03 01:50:07;;;;;;;12.23;4.85;;;26.20;99.90;;;;;;1783017;78;21158;-70
2023/07/03 01:52:43;;;;;;;11.15;5.12;;;26.20;99.90;;;;;;1802650;78;21550;-69
2023/07/03 01:55:27;;;;;;;13.05;5.30;;;26.20;99.90;;;;;;1830639;76;21521;-68
2023/07/03 01:58:28;;;;;;;14.47;5.65;;;26.20;99.90;;;;;;1827050;76;21111;-70
2023/07/03 02:01:12;;;;;;;8.53;4.20;;;26.30;99.90;;;;;;1828712;76;21504;-68
2023/07/03 02:04:08;;;;;;;10.43;4.22;;;26.30;99.90;;;;;;1824997;78;21112;-68
2023/07/03 02:06:44;;;;;;;10.93;5.12;;;26.30;99.90;;;;;;1840686;76;21084;-68
2023/07/03 02:09:18;;;;;;;9.48;4.78;;;26.40;99.90;;;;;;1830409;76;21071;-67
2023/07/03 02:11:53;;;;;;;7.53;3.85;;;26.50;99.90;;;;;;1889585;75;21141;-68
2023/07/03 02:14:26;;;;;;;7.20;3.85;;;26.50;99.90;;;;;;1818140;78;21123;-68
2023/07/03 02:16:58;;;;;;;6.87;3.72;;;26.60;99.90;;;;;;1843572;76;21177;-70
2023/07/03 02:19:31;;;;;;;4.92;3.20;;;26.50;99.90;;;;;;1807340;77;21763;-68
2023/07/03 02:22:04;;;;;;;16.05;6.53;;;26.60;99.90;;;;;;1779296;78;21189;-69
2023/07/03 02:24:36;;;;;;;16.23;5.60;;;26.60;99.90;;;;;;1842987;76;21149;-68
2023/07/03 02:27:13;;;;;;;25.05;6.58;;;26.60;99.90;;;;;;1846039;76;21151;-67
2023/07/03 02:29:49;;;;;;;11.33;3.67;;;26.60;99.90;;;;;;1839994;77;21152;-68
2023/07/03 02:32:21;;;;;;;8.55;3.00;;;26.70;99.90;;;;;;1840318;76;21080;-68
2023/07/03 02:34:54;;;;;;;7.95;2.98;;;26.80;99.90;;;;;;1833435;76;21143;-69
2023/07/03 02:37:28;;;;;;;8.95;3.40;;;26.80;99.90;;;;;;1833613;78;21173;-71
2023/07/03 02:40:05;;;;;;;7.25;3.62;;;26.90;99.90;;;;;;1830571;76;21156;-68
2023/07/03 02:42:37;;;;;;;16.97;4.47;;;26.90;99.90;;;;;;1832831;78;21169;-69
2023/07/03 02:45:11;;;;;;;5.50;3.55;;;27.00;99.90;;;;;;1834380;78;21106;-70
2023/07/03 02:47:45;;;;;;;10.55;3.92;;;27.00;99.90;;;;;;1831045;76;21101;-68
2023/07/03 02:50:18;;;;;;;15.53;4.67;;;27.10;99.90;;;;;;1896343;75;21136;-69
2023/07/03 02:52:51;;;;;;;31.33;7.58;;;27.10;99.90;;;;;;1890877;74;21119;-69
2023/07/03 02:55:24;;;;;;;7.05;3.40;;;27.20;99.90;;;;;;1883521;74;21185;-68
2023/07/03 02:57:58;;;;;;;5.42;2.55;;;27.20;99.90;;;;;;1789941;78;21098;-68
2023/07/03 03:00:29;;;;;;;17.90;4.62;;;27.30;99.90;;;;;;1806660;77;21155;-70
2023/07/03 03:03:02;;;;;;;15.38;3.62;;;27.30;99.90;;;;;;1841982;76;21123;-67
2023/07/03 03:05:36;;;;;;;5.45;2.80;;;27.30;99.90;;;;;;1841436;76;21184;-70
2023/07/03 03:08:07;;;;;;;4.42;2.70;;;27.40;99.90;;;;;;1803610;78;21122;-69
2023/07/03 03:10:40;;;;;;;6.47;2.92;;;27.40;99.90;;;;;;1889625;74;21189;-67
2023/07/03 03:13:12;;;;;;;7.35;3.67;;;27.50;99.90;;;;;;1813563;78;21217;-68
2023/07/03 03:15:46;;;;;;;5.78;3.02;;;27.50;99.90;;;;;;1811881;77;21158;-69
2023/07/03 03:18:17;;;;;;;12.43;6.62;;;27.60;99.90;;;;;;1838471;76;21129;-68
2023/07/03 03:20:49;;;;;;;11.73;5.33;;;27.70;99.90;;;;;;1890482;74;21650;-69
2023/07/03 03:23:20;;;;;;;13.00;5.80;;;27.80;99.90;;;;;;1839412;76;21139;-69
2023/07/03 03:25:53;;;;;;;8.98;4.22;;;27.80;99.90;;;;;;1890969;74;21221;-68
2023/07/03 03:28:26;;;;;;;6.20;3.58;;;27.90;99.90;;;;;;1887759;75;21287;-68
2023/07/03 03:30:59;;;;;;;35.15;13.68;;;27.90;99.90;;;;;;1808263;78;21257;-67
2023/07/03 03:33:32;;;;;;;42.05;10.85;;;27.90;99.90;;;;;;1844142;76;21084;-67
2023/07/03 03:36:04;;;;;;;4.67;2.35;;;28.00;99.90;;;;;;1847322;76;21142;-70
2023/07/03 03:38:36;;;;;;;7.85;2.72;;;28.00;99.90;;;;;;1844209;76;21173;-68
2023/07/03 03:41:08;;;;;;;10.53;2.67;;;28.10;99.90;;;;;;1840311;76;22361;-68
2023/07/03 03:43:40;;;;;;;5.53;2.50;;;28.10;99.90;;;;;;1885173;74;21605;-68
2023/07/03 03:46:13;;;;;;;8.68;3.05;;;28.10;99.90;;;;;;1842892;77;21178;-69
2023/07/03 03:48:46;;;;;;;7.08;2.58;;;28.10;99.90;;;;;;1824914;76;21126;-69
2023/07/03 03:51:17;;;;;;;11.53;2.90;;;28.20;99.90;;;;;;1827439;77;21138;-68
2023/07/03 03:53:53;;;;;;;6.87;2.90;;;28.20;99.90;;;;;;1819873;78;21135;-68
2023/07/03 03:56:25;;;;;;;8.03;2.35;;;28.20;99.90;;;;;;1831067;77;21086;-67
2023/07/03 03:59:02;;;;;;;9.05;2.75;;;28.30;99.90;;;;;;1819038;77;21087;-67
2023/07/03 04:01:35;;;;;;;7.70;2.85;;;28.30;99.90;;;;;;1825719;77;21432;-70
2023/07/03 04:04:13;;;;;;;31.82;5.72;;;28.30;99.90;;;;;;1825019;77;21622;-69
2023/07/03 04:06:46;;;;;;;57.98;10.55;;;28.40;99.90;;;;;;1827586;77;21575;-68
2023/07/03 04:09:18;;;;;;;20.05;4.78;;;28.50;99.90;;;;;;1830848;77;21173;-68
2023/07/03 04:11:51;;;;;;;24.77;4.60;;;28.50;99.90;;;;;;1838852;77;21588;-70
2023/07/03 04:14:23;;;;;;;11.12;3.77;;;28.50;99.90;;;;;;1821543;77;21173;-71
2023/07/03 04:16:58;;;;;;;15.58;5.90;;;28.60;99.90;;;;;;1820055;77;21176;-69
2023/07/03 04:19:30;;;;;;;21.70;4.80;;;28.70;99.90;;;;;;1824285;78;21142;-70
2023/07/03 04:22:04;;;;;;;10.75;3.05;;;28.70;99.90;;;;;;1827246;77;21145;-70
2023/07/03 04:24:38;;;;;;;12.47;3.65;;;28.70;99.90;;;;;;1823043;77;21156;-71
2023/07/03 04:27:11;;;;;;;31.27;6.15;;;28.80;99.90;;;;;;1822666;77;21095;-70
2023/07/03 04:29:48;;;;;;;30.52;5.42;;;28.80;99.90;;;;;;1821280;78;21485;-70
2023/07/03 04:32:25;;;;;;;16.12;3.30;;;28.80;99.90;;;;;;1826787;77;21114;-70
2023/07/03 04:35:00;;;;;;;6.87;2.40;;;28.90;99.90;;;;;;1824244;77;21091;-69
2023/07/03 04:37:34;;;;;;;6.65;2.20;;;28.90;99.90;;;;;;1815667;77;21667;-68
2023/07/03 04:40:09;;;;;;;9.48;2.02;;;29.00;99.90;;;;;;1820195;78;21153;-70
2023/07/03 04:42:43;;;;;;;20.92;4.30;;;29.00;99.90;;;;;;1822428;78;21142;-69
2023/07/03 04:45:17;;;;;;;10.38;2.30;;;29.00;99.90;;;;;;1819429;77;21165;-69
2023/07/03 04:47:51;;;;;;;10.80;3.58;;;29.10;99.90;;;;;;1819867;78;21125;-70
2023/07/03 04:50:25;;;;;;;7.15;2.17;;;29.10;99.90;;;;;;1821950;77;21141;-69
2023/07/03 04:53:03;;;;;;;4.62;1.87;;;29.20;99.90;;;;;;1827841;77;21090;-70
2023/07/03 04:55:38;;;;;;;5.85;2.00;;;29.20;99.90;;;;;;1819963;78;21191;-70
2023/07/03 04:58:11;;;;;;;8.90;2.05;;;29.20;99.90;;;;;;1853051;77;21170;-70
2023/07/03 05:00:43;;;;;;;10.68;2.72;;;29.20;99.90;;;;;;1866945;76;21108;-70
2023/07/03 05:03:14;;;;;;;5.20;2.15;;;29.20;99.90;;;;;;1811767;78;21503;-69
2023/07/03 05:05:47;;;;;;;3.92;1.60;;;29.20;99.90;;;;;;1806612;78;21442;-69
2023/07/03 05:08:20;;;;;;;9.53;2.58;;;29.30;99.90;;;;;;1826592;78;21086;-69
2023/07/03 05:10:53;;;;;;;5.55;1.87;;;29.30;99.90;;;;;;1858476;76;21570;-69
2023/07/03 05:13:26;;;;;;;6.78;1.80;;;29.40;99.90;;;;;;1793712;78;21112;-69
2023/07/03 05:16:01;;;;;;;5.72;1.90;;;29.40;99.90;;;;;;1838414;76;21920;-69
2023/07/03 05:18:38;;;;;;;6.12;2.10;;;29.40;99.90;;;;;;1852179;76;21139;-69
2023/07/03 05:21:11;;;;;;;9.40;2.62;;;29.50;99.90;;;;;;1844745;76;21169;-70
2023/07/03 05:23:43;;;;;;;6.40;2.12;;;29.60;99.90;;;;;;1812254;78;21099;-69
2023/07/03 05:26:17;;;;;;;3.22;1.98;;;29.70;99.90;;;;;;1816385;77;21092;-69
2023/07/03 05:28:53;;;;;;;5.80;2.30;;;29.80;99.90;;;;;;1843236;76;21130;-69
2023/07/03 05:31:27;;;;;;;2.92;1.37;;;29.80;99.90;;;;;;1782779;78;21148;-69
2023/07/03 05:34:01;;;;;;;6.37;2.00;;;29.80;99.90;;;;;;1814205;78;21536;-69
2023/07/03 05:36:35;;;;;;;3.30;1.52;;;29.80;99.90;;;;;;1807907;78;21510;-70
2023/07/03 05:39:08;;;;;;;3.45;1.50;;;29.80;99.90;;;;;;1812120;78;21133;-69
2023/07/03 05:41:46;;;;;;;6.00;1.70;;;29.80;99.90;;;;;;1815333;77;21143;-71
2023/07/03 05:44:27;;;;;;;4.33;1.50;;;29.90;99.90;;;;;;1850419;76;21176;-70
2023/07/03 05:47:00;;;;;;;6.20;1.87;;;29.90;99.90;;;;;;1847802;76;21087;-70
2023/07/03 05:49:33;;;;;;;3.17;1.30;;;29.80;99.90;;;;;;1841888;77;21129;-69
2023/07/03 05:52:04;;;;;;;4.45;1.70;;;29.80;99.90;;;;;;1812036;78;21626;-70
2023/07/03 05:54:37;;;;;;;11.88;2.50;;;29.80;99.90;;;;;;1861551;77;21079;-69
2023/07/03 05:57:11;;;;;;;4.58;1.55;;;29.80;99.90;;;;;;1850697;76;21119;-69
2023/07/03 05:59:43;;;;;;;4.85;1.50;;;29.80;99.90;;;;;;1854697;76;21133;-69
2023/07/03 06:02:16;;;;;;;7.47;2.37;;;29.90;99.90;;;;;;1845334;76;21529;-69
2023/07/03 06:04:51;;;;;;;6.92;2.10;;;29.90;99.90;;;;;;1811190;78;21107;-69
2023/07/03 06:07:25;;;;;;;6.20;2.45;;;29.80;99.90;;;;;;1811180;78;21139;-70
2023/07/03 06:09:57;;;;;;;4.78;1.80;;;29.90;99.90;;;;;;1843474;76;21574;-69
2023/07/03 06:12:30;;;;;;;5.05;2.02;;;29.90;99.90;;;;;;1838732;76;21174;-69
2023/07/03 06:15:07;;;;;;;11.88;3.12;;;29.90;99.90;;;;;;1838660;76;21136;-69
2023/07/03 06:17:44;;;;;;;10.05;2.62;;;30.00;99.90;;;;;;1846139;76;21058;-68
2023/07/03 06:20:14;;;;;;;7.22;2.35;;;30.00;99.90;;;;;;1848234;76;21537;-70
2023/07/03 06:22:47;;;;;;;7.97;2.30;;;30.00;99.90;;;;;;1843007;76;21123;-70
2023/07/03 06:25:18;;;;;;;17.17;4.12;;;30.00;99.90;;;;;;1838841;76;21192;-68
2023/07/03 06:27:51;;;;;;;15.53;3.80;;;30.00;99.90;;;;;;1886934;74;21080;-68
2023/07/03 06:30:24;;;;;;;7.83;1.98;;;30.10;99.90;;;;;;1886950;75;21154;-69
2023/07/03 06:32:54;;;;;;;8.53;2.25;;;30.20;99.90;;;;;;1891579;74;21063;-70
2023/07/03 06:35:31;;;;;;;8.80;2.62;;;30.30;99.90;;;;;;1812377;77;21712;-69
2023/07/03 06:38:04;;;;;;;6.83;2.45;;;30.40;99.90;;;;;;1838579;76;21039;-70
2023/07/03 06:40:36;;;;;;;5.03;1.72;;;30.40;99.90;;;;;;1840462;76;21212;-72
2023/07/03 06:43:08;;;;;;;12.30;3.12;;;30.50;99.90;;;;;;1805627;77;21202;-70
2023/07/03 06:45:41;;;;;;;5.08;1.35;;;30.60;99.90;;;;;;1815498;77;21557;-70
2023/07/03 06:48:14;;;;;;;6.62;2.25;;;30.60;99.90;;;;;;1790645;78;21147;-69
2023/07/03 06:50:46;;;;;;;6.83;2.10;;;30.80;99.90;;;;;;1823864;77;21141;-68
2023/07/03 06:53:19;;;;;;;22.42;3.83;;;30.90;99.90;;;;;;1828558;77;21198;-71
2023/07/03 06:55:57;;;;;;;8.83;2.22;;;30.80;99.90;;;;;;1826411;77;21676;-70
2023/07/03 06:58:31;;;;;;;11.30;3.30;;;30.80;99.90;;;;;;1824846;77;21170;-69
2023/07/03 07:01:12;;;;;;;9.65;2.45;;;30.70;99.90;;;;;;1840830;76;21772;-71
2023/07/03 07:03:46;;;;;;;5.08;1.60;;;30.70;99.90;;;;;;1828505;77;21648;-69
2023/07/03 07:06:22;;;;;;;15.65;3.22;;;30.70;99.90;;;;;;1835502;77;21222;-69
2023/07/03 07:08:55;;;;;;;20.68;4.33;;;30.70;99.90;;;;;;1815521;77;21926;-71
2023/07/03 07:11:30;;;;;;;13.70;3.50;;;30.70;99.90;;;;;;1825585;77;21732;-70
2023/07/03 07:14:05;;;;;;;10.20;2.52;;;30.80;99.90;;;;;;1841713;76;21175;-69
2023/07/03 07:16:40;;;;;;;8.35;2.98;;;30.80;99.90;;;;;;1819820;76;21089;-70
2023/07/03 07:19:13;;;;;;;9.15;2.33;;;30.80;99.90;;;;;;1843591;76;21059;-69
2023/07/03 07:21:46;;;;;;;5.95;2.25;;;30.80;99.90;;;;;;1847847;76;21528;-70
2023/07/03 07:24:24;;;;;;;6.08;1.80;;;30.80;99.90;;;;;;1850772;76;21084;-71
2023/07/03 07:27:02;;;;;;;4.90;2.17;;;30.90;99.90;;;;;;1843100;76;21225;-70
2023/07/03 07:29:35;;;;;;;5.85;1.87;;;30.90;99.90;;;;;;1855702;76;21862;-69
2023/07/03 07:32:08;;;;;;;5.83;2.00;;;31.10;99.90;;;;;;1843372;76;21111;-69
2023/07/03 07:34:41;;;;;;;5.05;1.92;;;31.10;99.90;;;;;;1846991;76;21147;-72
2023/07/03 07:37:15;;;;;;;12.20;2.75;;;31.20;99.90;;;;;;1808354;78;21597;-68
2023/07/03 07:39:49;;;;;;;25.27;4.05;;;31.20;99.90;;;;;;1817450;77;21154;-71
2023/07/03 07:42:21;;;;;;;6.62;1.92;;;31.10;99.90;;;;;;1850471;76;21615;-70
2023/07/03 07:44:55;;;;;;;10.90;2.17;;;31.10;99.90;;;;;;1847826;76;21127;-72
2023/07/03 07:47:27;;;;;;;21.73;3.42;;;31.10;99.90;;;;;;1846121;76;21070;-71
2023/07/03 07:50:00;;;;;;;9.43;1.87;;;31.10;99.90;;;;;;1845213;76;21139;-69
2023/07/03 07:52:34;;;;;;;11.60;3.42;;;31.00;99.90;;;;;;1807770;77;21139;-70
2023/07/03 07:55:08;;;;;;;8.53;1.87;;;31.00;99.90;;;;;;1816333;78;21746;-69
2023/07/03 07:57:44;;;;;;;6.25;1.80;;;30.90;99.90;;;;;;1811395;78;21194;-69
2023/07/03 08:00:20;;;;;;;24.52;3.92;;;30.90;99.90;;;;;;1806826;77;21487;-69
2023/07/03 08:02:52;;;;;;;12.25;2.30;;;30.80;99.90;;;;;;1843558;76;21092;-70
2023/07/03 08:05:25;;;;;;;6.95;2.45;;;30.80;99.90;;;;;;1811631;78;21115;-69
2023/07/03 08:07:59;;;;;;;8.70;2.98;;;30.80;99.90;;;;;;1835664;76;21135;-70
2023/07/03 08:10:32;;;;;;;10.95;3.67;;;30.80;99.90;;;;;;1850008;76;21107;-72
2023/07/03 08:13:05;;;;;;;10.50;3.27;;;30.90;99.90;;;;;;1837893;76;21087;-70
2023/07/03 08:15:38;;;;;;;7.45;2.40;;;31.10;99.90;;;;;;1819305;78;21241;-69
2023/07/03 08:18:15;;;;;;;;;;;31.20;99.90;;;;;;1845861;76;21765;-69
2023/07/03 08:20:50;;;;;;;18.05;3.40;;;31.30;99.90;;;;;;1861886;76;20207;-71
2023/07/03 08:23:23;;;;;;;18.35;4.20;;;31.30;99.90;;;;;;1825844;76;21184;-72
2023/07/03 08:25:56;;;;;;;12.78;3.02;;;31.30;99.90;;;;;;1828716;76;21111;-70
2023/07/03 08:28:37;;;;;;;10.40;3.05;;;31.30;99.90;;;;;;1824685;77;21132;-70
2023/07/03 08:31:08;;;;;;;18.98;3.85;;;31.20;99.90;;;;;;1852547;76;21144;-70
2023/07/03 08:33:42;;;;;;;15.30;3.52;;;31.20;99.90;;;;;;1836519;76;21092;-70
2023/07/03 08:36:16;;;;;;;12.40;2.95;;;31.10;99.90;;;;;;1842649;76;21840;-70
2023/07/03 08:38:50;;;;;;;15.90;3.67;;;31.00;99.90;;;;;;1830431;76;21101;-72
2023/07/03 08:41:23;;;;;;;13.65;4.67;;;30.90;99.90;;;;;;1836466;76;21125;-69
2023/07/03 08:44:01;;;;;;;37.67;6.37;;;30.90;99.90;;;;;;1834534;76;21229;-71
2023/07/03 08:46:36;;;;;;;;;;;30.90;99.90;;;;;;1842894;76;21161;-71
2023/07/03 08:49:13;;;;;;;14.00;3.30;;;30.80;99.90;;;;;;1846520;76;20136;-70
2023/07/03 08:51:46;;;;;;;15.78;4.08;;;30.80;99.90;;;;;;1841654;76;21123;-71
2023/07/03 08:54:24;;;;;;;8.13;2.52;;;30.80;99.90;;;;;;1782266;78;21104;-69
2023/07/03 08:56:58;;;;;;;16.27;3.17;;;30.70;99.90;;;;;;1843591;77;21058;-71
2023/07/03 08:59:30;;;;;;;18.85;3.95;;;30.70;99.90;;;;;;1842572;76;21115;-70
2023/07/03 09:02:20;;;;;;;20.77;3.37;;;30.70;99.90;;;;;;1849103;76;21584;-70
2023/07/03 09:04:57;;;;;;;7.50;2.50;;;30.60;99.90;;;;;;1852004;76;21067;-69
2023/07/03 09:07:41;;;;;;;12.63;2.60;;;30.60;99.90;;;;;;1850317;76;21158;-69
2023/07/03 09:10:16;;;;;;;13.22;2.50;;;30.60;99.90;;;;;;1849013;76;21154;-68
2023/07/03 09:12:57;;;;;;;12.20;2.70;;;30.50;99.90;;;;;;1849966;76;21145;-74
2023/07/03 09:15:50;;;;;;;9.98;2.62;;;30.50;99.90;;;;;;1840477;76;21074;-69
2023/07/03 09:18:26;;;;;;;12.68;3.35;;;30.50;99.90;;;;;;1847129;76;21098;-70
2023/07/03 09:21:01;;;;;;;10.75;2.33;;;30.50;99.90;;;;;;1838967;77;21538;-70
2023/07/03 09:23:51;;;;;;;10.68;2.42;;;30.40;99.90;;;;;;1836329;77;21099;-70
2023/07/03 09:26:37;;;;;;;9.80;2.67;;;30.40;99.90;;;;;;1844944;76;21218;-69
2023/07/03 09:29:14;;;;;;;16.77;2.80;;;30.50;99.90;;;;;;1847371;76;21619;-71
2023/07/03 09:31:45;;;;;;;13.38;2.50;;;30.50;99.90;;;;;;1826829;77;21134;-70
2023/07/03 09:34:18;;;;;;;7.20;1.70;;;30.50;99.90;;;;;;1845188;76;21610;-70
2023/07/03 09:37:01;;;;;;;12.00;2.22;;;30.50;99.90;;;;;;1886633;74;21152;-69
2023/07/03 09:39:33;;;;;;;7.25;1.70;;;30.50;99.90;;;;;;1888171;74;21130;-70
2023/07/03 09:42:10;;;;;;;5.47;2.50;;;30.40;99.90;;;;;;1840774;76;21101;-69
2023/07/03 09:44:42;;;;;;;;;;;30.40;99.90;;;;;;1843767;76;21119;-70
2023/07/03 09:47:22;;;;;;;10.18;2.65;;;30.40;99.90;;;;;;1836563;76;20209;-70
2023/07/03 09:49:54;;;;;;;6.33;2.00;;;30.40;99.90;;;;;;1814803;77;21119;-69
2023/07/03 09:52:28;;;;;;;15.40;3.62;;;30.40;99.90;;;;;;1844046;76;21082;-70
2023/07/03 09:55:03;;;;;;;7.10;2.20;;;30.40;99.90;;;;;;1801640;78;21087;-70
2023/07/03 09:57:39;;;;;;;10.18;3.17;;;30.30;99.90;;;;;;1851774;76;21148;-70
2023/07/03 10:00:14;;;;;;;12.55;3.60;;;30.40;99.90;;;;;;1834808;76;21173;-69
2023/07/03 10:02:49;;;;;;;23.18;4.03;;;30.40;99.90;;;;;;1844145;76;21562;-69
2023/07/03 10:05:30;;;;;;;15.70;4.12;;;30.30;99.90;;;;;;1811632;77;21270;-69
2023/07/03 10:08:07;;;;;;;14.28;3.40;;;30.40;99.90;;;;;;1839603;76;21049;-70
2023/07/03 10:10:42;;;;;;;11.03;2.35;;;30.40;99.90;;;;;;1885603;75;21534;-67
2023/07/03 10:13:27;;;;;;;8.90;3.00;;;30.40;99.90;;;;;;1841164;76;21527;-70
2023/07/03 10:16:01;;;;;;;6.80;1.82;;;30.40;99.90;;;;;;1847640;76;21193;-71
2023/07/03 10:18:40;;;;;;;9.88;2.60;;;30.40;99.90;;;;;;1839806;76;21121;-70
2023/07/03 10:21:20;;;;;;;5.80;2.75;;;30.40;99.90;;;;;;1808449;77;21114;-69
2023/07/03 10:23:52;;;;;;;13.40;3.27;;;30.40;99.90;;;;;;1840941;76;21536;-69
2023/07/03 10:26:33;;;;;;;14.73;3.02;;;30.40;99.90;;;;;;1841162;76;21196;-68
2023/07/03 10:29:09;;;;;;;7.80;1.77;;;30.40;99.90;;;;;;1802136;78;21034;-70
2023/07/03 10:31:58;;;;;;;7.75;2.75;;;30.40;99.90;;;;;;1834800;77;21155;-69
2023/07/03 10:34:39;;;;;;;7.25;2.72;;;30.40;99.90;;;;;;1836277;76;21522;-70
2023/07/03 10:37:15;;;;;;;14.53;8.65;;;30.40;99.90;;;;;;1834504;76;21615;-70
2023/07/03 10:40:00;;;;;;;7.08;4.08;;;30.40;99.90;;;;;;1842703;76;21073;-70
2023/07/03 10:42:39;;;;;;;10.13;2.62;;;30.40;99.90;;;;;;1857401;76;21091;-69
2023/07/03 10:45:15;;;;;;;8.43;3.08;;;30.40;99.90;;;;;;1850966;76;21102;-70
2023/07/03 10:48:02;;;;;;;6.40;1.85;;;30.40;99.90;;;;;;1883569;74;21532;-68
2023/07/03 10:50:37;;;;;;;4.95;1.92;;;30.40;99.90;;;;;;1807109;78;21186;-69
2023/07/03 10:53:41;;;;;;;4.20;2.00;;;30.40;99.90;;;;;;1815573;78;21105;-68
2023/07/03 10:56:22;;;;;;;4.60;1.80;;;30.40;99.90;;;;;;1852403;76;21643;-69
2023/07/03 10:59:07;;;;;;;4.45;1.70;;;30.40;99.90;;;;;;1851164;76;21209;-69
2023/07/03 11:01:49;;;;;;;3.50;1.55;;;30.40;99.90;;;;;;1812467;78;21850;-69
2023/07/03 11:04:25;;;;;;;9.03;1.95;;;30.40;99.90;;;;;;1841628;76;21201;-69
2023/07/03 11:07:15;;;;;;;11.63;1.75;;;30.40;99.90;;;;;;1885122;75;21087;-68
2023/07/03 11:10:05;;;;;;;8.93;2.20;;;30.30;99.90;;;;;;1892331;74;21052;-69
2023/07/03 11:12:48;;;;;;;8.43;2.15;;;30.30;99.90;;;;;;1886398;74;21573;-68
2023/07/03 11:15:32;;;;;;;4.17;2.02;;;30.30;99.90;;;;;;1807648;78;21066;-69
2023/07/03 11:18:23;;;;;;;5.50;2.40;;;30.30;99.90;;;;;;1841292;77;21219;-69
2023/07/03 11:21:10;;;;;;;5.55;1.92;;;30.30;99.90;;;;;;1835572;77;21784;-69
2023/07/03 11:23:54;;;;;;;10.85;2.60;;;30.30;99.90;;;;;;1832860;76;21185;-69
2023/07/03 11:26:39;;;;;;;5.28;1.67;;;30.30;99.90;;;;;;1833997;76;21116;-69
2023/07/03 11:29:13;;;;;;;8.63;2.52;;;30.30;99.90;;;;;;1836597;76;21153;-70
2023/07/03 11:31:47;;;;;;;6.10;2.10;;;30.20;99.90;;;;;;1839641;78;21163;-71
2023/07/03 11:34:21;;;;;;;7.83;2.20;;;30.20;99.90;;;;;;1836176;76;21067;-70
2023/07/03 11:36:57;;;;;;;8.38;2.50;;;30.20;99.90;;;;;;1840977;76;21047;-69
2023/07/03 11:39:33;;;;;;;11.65;2.87;;;30.20;99.90;;;;;;1840160;76;21546;-69
2023/07/03 11:42:14;;;;;;;11.28;2.95;;;30.20;99.90;;;;;;1844912;76;21196;-69
2023/07/03 11:45:00;;;;;;;9.33;2.83;;;30.20;99.90;;;;;;1877610;74;21130;-69
2023/07/03 11:47:33;;;;;;;8.10;3.05;;;30.10;99.90;;;;;;1838315;76;21142;-71
2023/07/03 11:50:07;;;;;;;8.53;3.52;;;30.00;99.90;;;;;;1843573;76;21561;-69
2023/07/03 11:52:42;;;;;;;9.05;3.00;;;30.00;99.90;;;;;;1848593;76;21103;-71
2023/07/03 11:55:21;;;;;;;6.22;3.42;;;30.00;99.90;;;;;;1839969;76;21594;-70
2023/07/03 11:58:00;;;;;;;6.90;2.85;;;30.00;99.90;;;;;;1837193;76;21174;-69
2023/07/03 12:00:34;;;;;;;13.60;3.72;;;30.00;99.90;;;;;;1832190;76;21175;-71
2023/07/03 12:03:11;;;;;;;9.55;2.67;;;29.90;99.90;;;;;;1851175;76;21071;-69
2023/07/03 12:05:51;;;;;;;8.70;2.70;;;29.90;99.90;;;;;;1837056;76;21146;-70
2023/07/03 12:08:28;;;;;;;7.30;2.85;;;29.90;99.90;;;;;;1788126;79;21218;-69
2023/07/03 12:11:03;;;;;;;8.30;2.80;;;29.90;99.90;;;;;;1847904;75;21119;-70
2023/07/03 12:13:50;;;;;;;7.47;2.42;;;29.90;99.90;;;;;;1782689;79;21566;-69
2023/07/03 12:16:35;;;;;;;6.37;2.37;;;29.90;99.90;;;;;;1833097;77;21182;-69
2023/07/03 12:19:10;;;;;;;7.03;2.30;;;29.90;99.90;;;;;;1824073;77;21620;-69
2023/07/03 12:21:44;;;;;;;8.48;2.62;;;29.80;99.90;;;;;;1823661;77;21096;-69
2023/07/03 12:24:25;;;;;;;8.65;2.60;;;29.80;99.90;;;;;;1833474;77;21157;-69
2023/07/03 12:27:02;;;;;;;11.97;3.35;;;29.80;99.90;;;;;;1829633;76;21127;-69
2023/07/03 12:29:36;;;;;;;5.80;2.50;;;29.80;99.90;;;;;;1862630;76;21146;-69
2023/07/03 12:32:10;;;;;;;8.40;3.10;;;29.80;99.90;;;;;;1845832;76;21296;-69
2023/07/03 12:34:44;;;;;;;6.95;2.40;;;29.70;99.90;;;;;;1835748;76;21137;-68
2023/07/03 12:37:20;;;;;;;7.72;2.72;;;29.70;99.90;;;;;;1837190;77;21205;-70
2023/07/03 12:39:53;;;;;;;6.10;2.42;;;29.70;99.90;;;;;;1847251;76;21165;-69
2023/07/03 12:42:28;;;;;;;9.03;2.62;;;29.70;99.90;;;;;;1838484;77;21139;-70
2023/07/03 12:45:01;;;;;;;7.33;2.42;;;29.70;99.90;;;;;;1845183;76;21105;-70
2023/07/03 12:47:34;;;;;;;6.65;2.50;;;29.70;99.90;;;;;;1835918;76;21150;-69
2023/07/03 12:50:06;;;;;;;6.95;2.40;;;29.70;99.90;;;;;;1839816;77;21098;-70
2023/07/03 12:52:40;;;;;;;10.28;2.83;;;29.70;99.90;;;;;;1838913;77;21119;-69
2023/07/03 12:55:13;;;;;;;10.98;3.17;;;29.70;99.90;;;;;;1843472;77;21647;-69
2023/07/03 12:57:46;;;;;;;7.90;3.12;;;29.70;99.90;;;;;;1841222;76;21149;-68
2023/07/03 13:00:32;;;;;;;7.78;2.80;;;29.70;99.90;;;;;;1840529;76;21073;-68
2023/07/03 13:03:10;;;;;;;12.07;3.00;;;29.70;99.90;;;;;;1839062;76;21171;-70
2023/07/03 13:05:43;;;;;;;6.40;2.52;;;29.70;99.90;;;;;;1838983;76;21457;-70
2023/07/03 13:08:17;;;;;;;10.15;3.02;;;29.60;99.90;;;;;;1843963;76;21129;-69
2023/07/03 13:10:59;;;;;;;6.08;2.20;;;29.70;99.90;;;;;;1805423;77;21199;-70
2023/07/03 13:13:33;;;;;;;5.25;2.30;;;29.60;99.90;;;;;;1843031;76;21207;-68
2023/07/03 13:16:20;;;;;;;5.60;2.62;;;29.60;99.90;;;;;;1838001;76;21066;-70
2023/07/03 13:19:00;;;;;;;7.47;2.70;;;29.60;99.90;;;;;;1839011;76;21097;-68
2023/07/03 13:21:35;;;;;;;7.30;2.75;;;29.60;99.90;;;;;;1808843;77;21176;-67
2023/07/03 13:24:10;;;;;;;6.25;3.22;;;29.50;99.90;;;;;;1811881;78;21068;-70
2023/07/03 13:26:43;;;;;;;8.63;3.05;;;29.50;99.90;;;;;;1852541;76;21587;-67
2023/07/03 13:29:26;;;;;;;7.17;2.98;;;29.50;99.90;;;;;;1790151;78;21567;-69